createdAt,value
2022-09-28T00:00:12.695Z,86.30
2022-09-28T00:02:44.143Z,87.02
2022-09-28T00:05:13.249Z,86.99
2022-09-28T00:07:43.050Z,86.29
2022-09-28T00:10:13.413Z,85.89
2022-09-28T00:12:44.333Z,86.07
2022-09-28T00:15:16.035Z,86.42
2022-09-28T00:17:45.028Z,85.71
2022-09-28T00:20:13.569Z,85.21
2022-09-28T00:22:42.031Z,85.54
2022-09-28T00:25:16.988Z,85.11
2022-09-28T00:27:51.603Z,86.41
2022-09-28T00:30:19.663Z,85.53
2022-09-28T00:32:48.388Z,86.63
2022-09-28T00:35:16.492Z,86.04
2022-09-28T00:37:44.870Z,86.02
2022-09-28T00:40:16.278Z,85.65
2022-09-28T00:42:45.078Z,85.18
2022-09-28T00:45:20.044Z,86.09
2022-09-28T00:47:52.509Z,85.98
2022-09-28T00:50:28.103Z,85.78
2022-09-28T00:53:03.379Z,86.11
2022-09-28T00:55:37.691Z,86.52
2022-09-28T00:58:12.726Z,86.75
2022-09-28T01:00:42.891Z,86.36
2022-09-28T01:03:11.697Z,85.97
2022-09-28T01:05:44.887Z,85.37
2022-09-28T01:08:14.715Z,85.33
2022-09-28T01:10:44.972Z,84.26
2022-09-28T01:13:15.364Z,83.43
2022-09-28T01:15:50.661Z,83.86
2022-09-28T01:18:26.884Z,83.98
2022-09-28T01:21:03.234Z,85.35
2022-09-28T01:23:57.466Z,84.78
2022-09-28T01:27:03.279Z,84.71
2022-09-28T01:29:48.770Z,84.30
2022-09-28T01:32:25.473Z,84.02
2022-09-28T01:35:00.420Z,83.92
2022-09-28T01:37:37.861Z,84.21
2022-09-28T01:40:09.650Z,84.17
2022-09-28T01:42:47.978Z,84.11
2022-09-28T01:45:22.335Z,84.38
2022-09-28T01:47:52.028Z,84.26
2022-09-28T01:50:26.034Z,84.44
2022-09-28T01:52:58.342Z,84.42
2022-09-28T01:55:31.248Z,83.18
2022-09-28T01:58:06.795Z,81.57
2022-09-28T02:00:42.522Z,81.86
2022-09-28T02:03:17.124Z,82.16
2022-09-28T02:05:54.063Z,81.81
2022-09-28T02:08:28.510Z,81.19
2022-09-28T02:11:02.697Z,80.74
2022-09-28T02:13:35.691Z,80.85
2022-09-28T02:16:09.124Z,79.09
2022-09-28T02:18:42.614Z,80.29
2022-09-28T02:21:16.622Z,79.73
2022-09-28T02:23:53.457Z,79.84
2022-09-28T02:26:30.914Z,79.50
2022-09-28T02:29:08.160Z,79.79
2022-09-28T02:31:37.439Z,79.51
2022-09-28T02:34:05.855Z,79.69
2022-09-28T02:36:42.548Z,79.68
2022-09-28T02:39:15.306Z,79.92
2022-09-28T02:41:54.051Z,80.75
2022-09-28T02:44:40.880Z,80.42
2022-09-28T02:47:25.904Z,81.21
2022-09-28T02:50:06.290Z,80.14
2022-09-28T02:52:52.077Z,80.32
2022-09-28T02:55:31.083Z,80.33
2022-09-28T02:58:20.652Z,79.96
2022-09-28T03:00:58.596Z,80.63
2022-09-28T03:03:36.709Z,81.18
2022-09-28T03:06:12.120Z,81.44
2022-09-28T03:08:45.928Z,82.03
2022-09-28T03:11:20.219Z,82.79
2022-09-28T03:13:49.274Z,81.66
2022-09-28T03:16:22.685Z,81.49
2022-09-28T03:18:55.643Z,81.97
2022-09-28T03:21:24.039Z,81.83
2022-09-28T03:23:56.819Z,82.32
2022-09-28T03:26:30.377Z,82.73
2022-09-28T03:29:00.590Z,82.32
2022-09-28T03:31:32.623Z,82.77
2022-09-28T03:34:01.456Z,82.32
2022-09-28T03:36:37.988Z,81.82
2022-09-28T03:39:07.456Z,83.05
2022-09-28T03:41:36.108Z,82.57
2022-09-28T03:44:08.661Z,82.29
2022-09-28T03:46:38.871Z,82.41
2022-09-28T03:49:13.648Z,83.72
2022-09-28T03:51:44.248Z,83.30
2022-09-28T03:54:13.623Z,83.77
2022-09-28T03:56:42.108Z,83.81
2022-09-28T03:59:11.593Z,83.72
2022-09-28T04:01:45.412Z,83.48
2022-09-28T04:04:14.199Z,82.37
2022-09-28T04:06:43.644Z,82.43
2022-09-28T04:09:12.397Z,83.35
2022-09-28T04:12:02.795Z,83.59
2022-09-28T04:14:36.394Z,83.15
2022-09-28T04:17:07.485Z,81.85
2022-09-28T04:19:36.466Z,82.27
2022-09-28T04:22:05.791Z,81.37
2022-09-28T04:24:38.090Z,81.94
2022-09-28T04:27:29.008Z,82.58
2022-09-28T04:29:58.535Z,82.85
2022-09-28T04:32:31.693Z,83.04
2022-09-28T04:35:16.047Z,82.93
2022-09-28T04:37:46.897Z,84.05
2022-09-28T04:40:18.529Z,83.44
2022-09-28T04:42:57.883Z,83.96
2022-09-28T04:45:30.720Z,84.75
2022-09-28T04:48:07.705Z,82.67
2022-09-28T04:50:42.192Z,82.86
2022-09-28T04:53:11.917Z,83.22
2022-09-28T04:55:45.046Z,83.50
2022-09-28T04:58:16.292Z,82.85
2022-09-28T05:00:51.881Z,82.61
2022-09-28T05:03:26.020Z,82.05
2022-09-28T05:05:54.479Z,82.37
2022-09-28T05:08:24.902Z,82.74
2022-09-28T05:10:59.709Z,81.92
2022-09-28T05:13:27.852Z,82.69
2022-09-28T05:16:01.778Z,83.01
2022-09-28T05:18:36.215Z,83.03
2022-09-28T05:21:05.535Z,83.02
2022-09-28T05:23:35.241Z,82.69
2022-09-28T05:26:04.127Z,82.47
2022-09-28T05:28:33.994Z,82.46
2022-09-28T05:31:06.737Z,82.64
2022-09-28T05:33:38.660Z,83.33
2022-09-28T05:36:11.110Z,83.18
2022-09-28T05:38:42.254Z,83.08
2022-09-28T05:41:12.813Z,83.49
2022-09-28T05:43:48.181Z,83.42
2022-09-28T05:46:16.822Z,83.27
2022-09-28T05:48:48.003Z,82.63
2022-09-28T05:51:19.261Z,82.90
2022-09-28T05:53:50.744Z,82.59
2022-09-28T05:56:19.020Z,82.44
2022-09-28T05:58:50.514Z,82.35
2022-09-28T06:01:19.122Z,81.73
2022-09-28T06:03:48.960Z,82.13
2022-09-28T06:06:17.355Z,81.55
2022-09-28T06:08:46.443Z,81.03
2022-09-28T06:11:17.552Z,79.97
2022-09-28T06:13:46.087Z,80.13
2022-09-28T06:16:17.193Z,80.65
2022-09-28T06:18:45.963Z,80.14
2022-09-28T06:21:22.879Z,79.90
2022-09-28T06:23:52.205Z,79.44
2022-09-28T06:26:21.125Z,79.54
2022-09-28T06:28:55.357Z,80.77
2022-09-28T06:31:26.603Z,80.25
2022-09-28T06:33:56.018Z,79.09
2022-09-28T06:36:29.863Z,78.40
2022-09-28T06:39:00.021Z,78.25
2022-09-28T06:41:32.522Z,77.96
2022-09-28T06:44:02.253Z,79.01
2022-09-28T06:46:41.201Z,78.35
2022-09-28T06:49:15.105Z,78.02
2022-09-28T06:51:51.301Z,77.23
2022-09-28T06:54:26.249Z,78.39
2022-09-28T06:56:54.583Z,76.66
2022-09-28T06:59:23.555Z,74.96
2022-09-28T07:01:54.947Z,75.78
2022-09-28T07:04:23.586Z,75.90
2022-09-28T07:06:53.783Z,74.96
2022-09-28T07:09:32.400Z,75.77
2022-09-28T07:12:10.321Z,76.11
2022-09-28T07:14:47.512Z,74.72
2022-09-28T07:17:16.805Z,73.27
2022-09-28T07:19:45.893Z,73.49
2022-09-28T07:22:18.964Z,74.62
2022-09-28T07:24:50.188Z,73.72
2022-09-28T07:27:18.616Z,72.36
2022-09-28T07:29:47.418Z,73.40
2022-09-28T07:32:16.884Z,72.68
2022-09-28T07:34:45.208Z,71.20
2022-09-28T07:37:16.020Z,69.56
2022-09-28T07:40:01.155Z,70.00
2022-09-28T07:42:31.720Z,68.61
2022-09-28T07:45:00.233Z,68.35
2022-09-28T07:47:34.678Z,69.61
2022-09-28T07:50:03.399Z,69.85
2022-09-28T07:52:35.483Z,71.28
2022-09-28T07:55:07.780Z,70.45
2022-09-28T07:57:36.527Z,69.43
2022-09-28T08:00:08.907Z,68.99
2022-09-28T08:02:38.381Z,69.87
2022-09-28T08:05:10.238Z,70.29
2022-09-28T08:07:42.843Z,70.68
2022-09-28T08:10:11.554Z,71.59
2022-09-28T08:12:41.452Z,70.19
2022-09-28T08:15:12.032Z,71.22
2022-09-28T08:17:40.367Z,71.26
2022-09-28T08:20:30.550Z,70.31
2022-09-28T08:23:05.593Z,71.11
2022-09-28T08:25:34.335Z,72.97
2022-09-28T08:28:07.283Z,71.72
2022-09-28T08:30:36.402Z,72.35
2022-09-28T08:33:05.378Z,71.75
2022-09-28T08:35:34.173Z,72.04
2022-09-28T08:38:05.324Z,72.37
2022-09-28T08:40:45.768Z,71.20
2022-09-28T08:43:28.319Z,71.46
2022-09-28T08:46:00.880Z,72.22
2022-09-28T08:48:56.931Z,72.05
2022-09-28T08:51:40.514Z,71.12
2022-09-28T08:54:22.697Z,71.36
2022-09-28T08:56:55.574Z,69.06
2022-09-28T08:59:26.477Z,69.00
2022-09-28T09:01:59.965Z,68.69
2022-09-28T09:04:28.737Z,69.27
2022-09-28T09:07:27.211Z,67.42
2022-09-28T09:10:08.397Z,67.67
2022-09-28T09:12:49.229Z,66.89
2022-09-28T09:15:32.358Z,67.48
2022-09-28T09:18:20.159Z,66.99
2022-09-28T09:20:53.895Z,67.14
2022-09-28T09:23:36.553Z,67.95
2022-09-28T09:26:15.369Z,67.92
2022-09-28T09:29:07.931Z,67.27
2022-09-28T09:31:44.992Z,67.20
2022-09-28T09:34:25.821Z,66.44
2022-09-28T09:37:14.857Z,67.81
2022-09-28T09:40:00.516Z,66.22
2022-09-28T09:42:43.345Z,66.21
2022-09-28T09:45:26.113Z,66.96
2022-09-28T09:48:01.061Z,66.22
2022-09-28T09:50:33.980Z,65.96
2022-09-28T09:53:07.174Z,65.29
2022-09-28T09:55:41.911Z,65.70
2022-09-28T09:58:16.218Z,65.94
2022-09-28T10:00:54.628Z,65.71
2022-09-28T10:03:25.790Z,64.34
2022-09-28T10:06:06.865Z,64.32
2022-09-28T10:08:41.073Z,63.06
2022-09-28T10:11:14.467Z,63.57
2022-09-28T10:13:43.099Z,63.85
2022-09-28T10:16:14.163Z,65.45
2022-09-28T10:18:42.780Z,65.19
2022-09-28T10:21:15.902Z,66.45
2022-09-28T10:23:50.473Z,65.68
2022-09-28T10:26:26.772Z,67.62
2022-09-28T10:29:00.407Z,66.69
2022-09-28T10:31:42.862Z,66.05
2022-09-28T10:34:14.904Z,65.91
2022-09-28T10:36:51.463Z,65.62
2022-09-28T10:39:31.157Z,64.56
2022-09-28T10:42:04.545Z,64.07
2022-09-28T10:44:38.032Z,64.78
2022-09-28T10:47:17.947Z,63.72
2022-09-28T10:49:56.437Z,64.29
2022-09-28T10:52:39.972Z,63.25
2022-09-28T10:55:27.806Z,64.39
2022-09-28T10:58:23.148Z,62.72
2022-09-28T11:01:00.550Z,62.13
2022-09-28T11:03:32.160Z,64.63
2022-09-28T11:06:04.693Z,66.18
2022-09-28T11:08:40.440Z,67.09
2022-09-28T11:11:11.936Z,66.35
2022-09-28T11:13:46.519Z,65.53
2022-09-28T11:16:32.013Z,65.51
2022-09-28T11:19:24.403Z,63.37
2022-09-28T11:21:52.904Z,64.07
2022-09-28T11:24:23.823Z,63.39
2022-09-28T11:26:57.676Z,63.47
2022-09-28T11:29:37.570Z,62.26
2022-09-28T11:32:08.991Z,62.83
2022-09-28T11:35:00.608Z,62.55
2022-09-28T11:38:14.732Z,60.12
2022-09-28T11:40:53.167Z,62.82
2022-09-28T11:43:34.777Z,62.57
2022-09-28T11:46:10.846Z,61.51
2022-09-28T11:48:46.004Z,61.24
2022-09-28T11:51:20.785Z,62.19
2022-09-28T11:53:56.534Z,61.54
2022-09-28T11:56:34.817Z,61.25
2022-09-28T11:59:12.803Z,61.09
2022-09-28T12:01:46.803Z,59.85
2022-09-28T12:04:23.029Z,60.89
2022-09-28T12:07:03.828Z,60.75
2022-09-28T12:09:37.564Z,60.73
2022-09-28T12:12:16.054Z,60.30
2022-09-28T12:14:45.506Z,59.30
2022-09-28T12:17:22.187Z,59.53
2022-09-28T12:19:58.003Z,58.74
2022-09-28T12:22:34.111Z,59.60
2022-09-28T12:25:07.368Z,60.02
2022-09-28T12:27:42.247Z,59.24
2022-09-28T12:30:16.727Z,59.74
2022-09-28T12:32:50.667Z,59.43
2022-09-28T12:35:33.664Z,57.96
2022-09-28T12:38:25.988Z,57.00
2022-09-28T12:41:04.417Z,57.10
2022-09-28T12:43:57.448Z,56.33
2022-09-28T12:46:49.291Z,56.68
2022-09-28T12:52:30.479Z,56.23
2022-09-28T12:55:36.147Z,56.78
2022-09-28T12:58:23.421Z,57.07
2022-09-28T13:00:59.623Z,57.14
2022-09-28T13:04:27.294Z,57.28
2022-09-28T13:07:01.060Z,56.65
2022-09-28T13:09:42.818Z,56.31
2022-09-28T13:12:21.279Z,58.19
2022-09-28T13:15:39.501Z,57.03
2022-09-28T13:18:29.291Z,56.49
2022-09-28T13:21:22.177Z,57.18
2022-09-28T13:24:04.307Z,57.95
2022-09-28T13:26:40.091Z,58.65
2022-09-28T13:29:14.331Z,59.12
2022-09-28T13:31:50.470Z,59.42
2022-09-28T13:34:22.378Z,59.96
2022-09-28T13:37:21.673Z,59.71
2022-09-28T13:39:52.799Z,59.32
2022-09-28T13:42:40.853Z,59.78
2022-09-28T13:45:40.921Z,56.88
2022-09-28T13:48:38.603Z,56.15
2022-09-28T13:51:24.693Z,56.50
2022-09-28T13:54:23.639Z,55.83
2022-09-28T13:56:57.829Z,55.99
2022-09-28T13:59:28.404Z,55.19
2022-09-28T14:02:06.767Z,55.85
2022-09-28T14:05:02.770Z,55.98
2022-09-28T14:07:59.820Z,56.87
2022-09-28T14:10:52.028Z,56.88
2022-09-28T14:13:57.981Z,56.63
2022-09-28T14:16:28.110Z,57.15
2022-09-28T14:19:00.658Z,56.87
2022-09-28T14:22:01.666Z,57.09
2022-09-28T14:24:56.195Z,58.89
2022-09-28T14:27:51.534Z,58.17
2022-09-28T14:30:31.421Z,58.11
2022-09-28T14:33:03.003Z,59.13
2022-09-28T14:35:34.905Z,59.28
2022-09-28T14:38:31.655Z,59.85
2022-09-28T14:41:11.201Z,60.83
2022-09-28T14:44:00.393Z,59.79
2022-09-28T14:46:31.803Z,59.91
2022-09-28T14:49:03.673Z,57.89
2022-09-28T14:52:03.276Z,57.85
2022-09-28T14:54:49.470Z,58.03
2022-09-28T14:57:21.808Z,59.39
2022-09-28T14:59:50.829Z,58.81
2022-09-28T15:02:26.328Z,59.25
2022-09-28T15:05:00.609Z,59.41
2022-09-28T15:07:34.243Z,59.53
2022-09-28T15:10:04.379Z,60.44
2022-09-28T15:12:37.920Z,61.08
2022-09-28T15:15:18.470Z,61.23
2022-09-28T15:17:53.272Z,61.02
2022-09-28T15:20:36.958Z,62.32
2022-09-28T15:23:05.734Z,62.46
2022-09-28T15:25:37.494Z,62.21
2022-09-28T15:28:22.189Z,63.39
2022-09-28T15:30:52.828Z,63.72
2022-09-28T15:33:46.060Z,63.32
2022-09-28T15:36:20.577Z,64.44
2022-09-28T15:38:59.082Z,65.37
2022-09-28T15:41:35.526Z,64.53
2022-09-28T15:44:31.868Z,64.56
2022-09-28T15:47:10.721Z,65.06
2022-09-28T15:49:42.844Z,65.49
2022-09-28T15:52:26.931Z,65.49
2022-09-28T15:54:57.366Z,66.53
2022-09-28T15:57:39.348Z,66.69
2022-09-28T16:00:27.325Z,66.03
2022-09-28T16:03:25.515Z,65.98
2022-09-28T16:06:07.149Z,65.44
2022-09-28T16:08:43.339Z,66.52
2022-09-28T16:11:20.906Z,65.33
2022-09-28T16:14:04.564Z,65.27
2022-09-28T16:16:36.359Z,66.45
2022-09-28T16:19:05.311Z,67.77
2022-09-28T16:21:45.210Z,67.05
2022-09-28T16:24:25.250Z,67.12
2022-09-28T16:26:59.885Z,67.84
2022-09-28T16:29:39.751Z,67.07
2022-09-28T16:32:37.875Z,67.70
2022-09-28T16:35:20.132Z,67.77
2022-09-28T16:37:59.014Z,67.89
2022-09-28T16:40:29.547Z,67.23
2022-09-28T16:43:03.418Z,67.66
2022-09-28T16:45:38.657Z,68.21
2022-09-28T16:48:08.282Z,68.53
2022-09-28T16:50:37.876Z,68.85
2022-09-28T16:53:32.508Z,69.50
2022-09-28T16:56:04.084Z,68.73
2022-09-28T16:58:33.245Z,69.51
2022-09-28T17:01:05.493Z,70.67
2022-09-28T17:03:36.079Z,70.91
2022-09-28T17:06:06.455Z,71.64
2022-09-28T17:08:37.847Z,71.12
2022-09-28T17:11:19.274Z,71.58
2022-09-28T17:13:52.050Z,72.22
2022-09-28T17:16:49.366Z,72.43
2022-09-28T17:19:20.157Z,72.60
2022-09-28T17:21:48.857Z,71.97
2022-09-28T17:24:18.117Z,72.87
2022-09-28T17:26:48.818Z,72.76
2022-09-28T17:29:18.033Z,73.70
2022-09-28T17:31:50.808Z,74.16
2022-09-28T17:34:21.467Z,74.29
2022-09-28T17:36:49.942Z,76.29
2022-09-28T17:39:21.564Z,76.84
2022-09-28T17:41:49.903Z,78.14
2022-09-28T17:44:21.418Z,78.08
2022-09-28T17:46:52.390Z,78.85
2022-09-28T17:49:20.669Z,80.46
2022-09-28T17:51:53.075Z,80.76
2022-09-28T17:54:24.162Z,82.02
2022-09-28T17:56:54.484Z,82.33
2022-09-28T17:59:22.833Z,81.84
2022-09-28T18:01:52.803Z,82.89
2022-09-28T18:04:50.175Z,83.45
2022-09-28T18:07:15.470Z,86.13
2022-09-28T18:09:43.832Z,87.67
2022-09-28T18:12:12.311Z,88.84
2022-09-28T18:14:41.136Z,89.77
2022-09-28T18:17:12.688Z,89.63
2022-09-28T18:19:40.920Z,90.48
2022-09-28T18:22:12.518Z,90.84
2022-09-28T18:24:43.954Z,91.47
2022-09-28T18:27:12.201Z,91.42
2022-09-28T18:29:40.701Z,92.01
2022-09-28T18:32:10.541Z,92.00
2022-09-28T18:34:39.532Z,92.71
2022-09-28T18:37:08.033Z,91.78
2022-09-28T18:39:36.708Z,92.36
2022-09-28T18:42:06.439Z,92.95
2022-09-28T18:44:37.086Z,93.02
2022-09-28T18:47:06.015Z,93.34
2022-09-28T18:49:42.554Z,93.54
2022-09-28T18:52:14.907Z,93.84
2022-09-28T18:54:45.847Z,94.35
2022-09-28T18:57:16.623Z,93.66
2022-09-28T18:59:44.839Z,94.63
2022-09-28T19:02:18.750Z,94.98
2022-09-28T19:04:52.439Z,94.91
2022-09-28T19:07:32.068Z,95.30
2022-09-28T19:10:00.324Z,95.36
2022-09-28T19:12:30.241Z,94.90
2022-09-28T19:14:59.794Z,94.89
2022-09-28T19:17:29.916Z,94.99
2022-09-28T19:19:59.530Z,94.97
2022-09-28T19:22:30.661Z,94.45
2022-09-28T19:25:03.527Z,94.41
2022-09-28T19:27:35.132Z,94.90
2022-09-28T19:30:07.066Z,95.61
2022-09-28T19:32:37.278Z,95.69
2022-09-28T19:35:09.168Z,94.72
2022-09-28T19:37:42.285Z,94.49
2022-09-28T19:40:14.802Z,94.34
2022-09-28T19:42:43.304Z,94.65
2022-09-28T19:45:14.785Z,95.15
2022-09-28T19:47:59.669Z,95.02
2022-09-28T19:50:32.967Z,95.59
2022-09-28T19:53:02.434Z,95.66
2022-09-28T19:55:32.588Z,96.00
2022-09-28T19:58:06.259Z,95.90
2022-09-28T20:00:42.097Z,95.75
2022-09-28T20:03:12.251Z,95.94
2022-09-28T20:05:45.738Z,95.51
2022-09-28T20:08:14.982Z,95.91
2022-09-28T20:10:52.309Z,95.74
2022-09-28T20:13:21.812Z,95.76
2022-09-28T20:15:50.851Z,95.64
2022-09-28T20:18:22.653Z,95.98
2022-09-28T20:21:02.863Z,96.09
2022-09-28T20:23:36.291Z,95.95
2022-09-28T20:26:16.242Z,95.86
2022-09-28T20:28:48.389Z,96.19
2022-09-28T20:31:21.787Z,96.36
2022-09-28T20:33:50.759Z,96.29
2022-09-28T20:36:24.327Z,96.07
2022-09-28T20:38:58.659Z,95.79
2022-09-28T20:41:29.238Z,96.19
2022-09-28T20:44:04.827Z,95.81
2022-09-28T20:46:37.440Z,96.28
2022-09-28T20:49:08.338Z,96.03
2022-09-28T20:51:45.749Z,96.22
2022-09-28T20:54:14.794Z,96.25
2022-09-28T20:56:48.262Z,95.95
2022-09-28T20:59:16.953Z,95.74
2022-09-28T21:01:45.323Z,95.65
2022-09-28T21:04:19.744Z,95.60
2022-09-28T21:06:52.085Z,95.69
2022-09-28T21:09:22.283Z,95.75
2022-09-28T21:11:56.562Z,95.41
2022-09-28T21:14:30.306Z,95.42
2022-09-28T21:17:00.009Z,95.73
2022-09-28T21:19:30.782Z,95.89
2022-09-28T21:22:00.573Z,95.40
2022-09-28T21:24:28.965Z,95.29
2022-09-28T21:27:01.173Z,95.63
2022-09-28T21:29:30.669Z,95.40
2022-09-28T21:31:59.287Z,95.46
2022-09-28T21:34:29.148Z,95.86
2022-09-28T21:37:01.824Z,95.89
2022-09-28T21:39:36.955Z,95.95
2022-09-28T21:42:05.287Z,95.97
2022-09-28T21:44:36.124Z,95.53
2022-09-28T21:47:05.061Z,95.88
2022-09-28T21:49:34.998Z,95.68
2022-09-28T21:52:10.827Z,96.06
2022-09-28T21:54:42.578Z,96.20
2022-09-28T21:57:20.159Z,96.06
2022-09-28T21:59:51.744Z,96.37
2022-09-28T22:02:22.795Z,96.07
2022-09-28T22:04:52.837Z,95.85
2022-09-28T22:07:24.617Z,95.77
2022-09-28T22:09:54.114Z,95.75
2022-09-28T22:12:22.366Z,95.97
2022-09-28T22:14:55.034Z,96.28
2022-09-28T22:17:24.555Z,96.20
2022-09-28T22:19:52.830Z,95.88
2022-09-28T22:22:29.051Z,96.18
2022-09-28T22:25:00.818Z,95.81
2022-09-28T22:27:33.275Z,96.07
2022-09-28T22:30:03.865Z,95.80
2022-09-28T22:32:33.716Z,95.86
2022-09-28T22:35:03.768Z,95.60
2022-09-28T22:37:34.972Z,96.37
2022-09-28T22:40:03.299Z,96.34
2022-09-28T22:42:32.898Z,96.24
2022-09-28T22:45:07.410Z,96.41
2022-09-28T22:47:36.372Z,96.65
2022-09-28T22:50:07.819Z,96.82
2022-09-28T22:52:41.434Z,96.84
2022-09-28T22:55:10.063Z,96.78
2022-09-28T22:57:38.403Z,96.92
2022-09-28T23:00:10.423Z,97.07
2022-09-28T23:02:39.179Z,97.09
2022-09-28T23:05:08.479Z,97.12
2022-09-28T23:07:39.482Z,97.17
2022-09-28T23:10:09.029Z,96.99
2022-09-28T23:12:39.197Z,96.75
2022-09-28T23:15:12.974Z,96.90
2022-09-28T23:17:41.603Z,97.00
2022-09-28T23:20:10.818Z,96.64
2022-09-28T23:22:42.737Z,96.48
2022-09-28T23:25:11.034Z,96.40
2022-09-28T23:27:40.230Z,96.46
2022-09-28T23:30:10.471Z,96.50
2022-09-28T23:32:38.782Z,96.51
2022-09-28T23:35:08.457Z,96.66
2022-09-28T23:37:37.734Z,96.25
2022-09-28T23:40:09.375Z,96.24
2022-09-28T23:42:37.688Z,96.66
2022-09-28T23:45:08.443Z,96.75
2022-09-28T23:47:38.792Z,96.97
2022-09-28T23:50:08.239Z,97.03
2022-09-28T23:52:36.806Z,97.09
2022-09-28T23:55:08.507Z,97.05
2022-09-28T23:57:41.269Z,96.88
